sensor_id;sensor_type;location;lat;lon;timestamp;temperature;humidity
22623;DHT22;11478;51.094;7.030;2023-09-30T00:01:03;11.20;99.90
22623;DHT22;11478;51.094;7.030;2023-09-30T00:03:35;11.20;99.90
22623;DHT22;11478;51.094;7.030;2023-09-30T00:06:00;11.10;99.90
22623;DHT22;11478;51.094;7.030;2023-09-30T00:08:55;11.00;99.90
22623;DHT22;11478;51.094;7.030;2023-09-30T00:11:22;11.00;99.90
22623;DHT22;11478;51.094;7.030;2023-09-30T00:13:47;11.00;99.90
22623;DHT22;11478;51.094;7.030;2023-09-30T00:16:15;11.00;99.90
22623;DHT22;11478;51.094;7.030;2023-09-30T00:18:43;11.00;99.90
22623;DHT22;11478;51.094;7.030;2023-09-30T00:21:30;11.00;99.90
22623;DHT22;11478;51.094;7.030;2023-09-30T00:23:56;11.00;99.90
22623;DHT22;11478;51.094;7.030;2023-09-30T00:26:27;11.00;99.90
22623;DHT22;11478;51.094;7.030;2023-09-30T00:28:53;10.90;99.90
22623;DHT22;11478;51.094;7.030;2023-09-30T00:31:29;10.90;99.90
22623;DHT22;11478;51.094;7.030;2023-09-30T00:33:55;10.90;99.90
22623;DHT22;11478;51.094;7.030;2023-09-30T00:36:26;10.80;99.90
22623;DHT22;11478;51.094;7.030;2023-09-30T00:38:52;10.80;99.90
22623;DHT22;11478;51.094;7.030;2023-09-30T00:41:18;10.80;99.90
22623;DHT22;11478;51.094;7.030;2023-09-30T00:44:06;10.80;99.90
22623;DHT22;11478;51.094;7.030;2023-09-30T00:46:38;10.80;99.90
22623;DHT22;11478;51.094;7.030;2023-09-30T00:52:27;10.80;99.90
22623;DHT22;11478;51.094;7.030;2023-09-30T00:54:59;10.80;99.90
22623;DHT22;11478;51.094;7.030;2023-09-30T00:57:26;10.80;99.90
22623;DHT22;11478;51.094;7.030;2023-09-30T00:59:53;10.80;99.90
22623;DHT22;11478;51.094;7.030;2023-09-30T01:02:22;10.80;99.90
22623;DHT22;11478;51.094;7.030;2023-09-30T01:04:49;10.90;99.90
22623;DHT22;11478;51.094;7.030;2023-09-30T01:07:15;10.90;99.90
22623;DHT22;11478;51.094;7.030;2023-09-30T01:09:41;10.90;99.90
22623;DHT22;11478;51.094;7.030;2023-09-30T01:12:09;10.90;99.90
22623;DHT22;11478;51.094;7.030;2023-09-30T01:14:58;10.80;99.90
22623;DHT22;11478;51.094;7.030;2023-09-30T01:17:33;10.80;99.90
22623;DHT22;11478;51.094;7.030;2023-09-30T01:19:59;10.70;99.90
22623;DHT22;11478;51.094;7.030;2023-09-30T01:25:24;10.80;99.90
22623;DHT22;11478;51.094;7.030;2023-09-30T01:31:13;10.80;99.90
22623;DHT22;11478;51.094;7.030;2023-09-30T01:33:39;10.80;99.90
22623;DHT22;11478;51.094;7.030;2023-09-30T01:36:19;10.80;99.90
22623;DHT22;11478;51.094;7.030;2023-09-30T01:38:45;10.70;99.90
22623;DHT22;11478;51.094;7.030;2023-09-30T01:44:29;10.80;99.90
22623;DHT22;11478;51.094;7.030;2023-09-30T01:46:55;10.80;99.90
22623;DHT22;11478;51.094;7.030;2023-09-30T01:49:23;10.80;99.90
22623;DHT22;11478;51.094;7.030;2023-09-30T01:55:11;10.60;99.90
22623;DHT22;11478;51.094;7.030;2023-09-30T02:01:21;10.60;99.90
22623;DHT22;11478;51.094;7.030;2023-09-30T02:03:47;10.70;99.90
22623;DHT22;11478;51.094;7.030;2023-09-30T02:06:13;10.70;99.90
22623;DHT22;11478;51.094;7.030;2023-09-30T02:08:45;10.80;99.90
22623;DHT22;11478;51.094;7.030;2023-09-30T02:11:14;10.80;99.90
22623;DHT22;11478;51.094;7.030;2023-09-30T02:14:01;10.70;99.90
22623;DHT22;11478;51.094;7.030;2023-09-30T02:16:27;10.60;99.90
22623;DHT22;11478;51.094;7.030;2023-09-30T02:22:12;10.50;99.90
22623;DHT22;11478;51.094;7.030;2023-09-30T02:24:58;10.50;99.90
22623;DHT22;11478;51.094;7.030;2023-09-30T02:27:24;10.50;99.90
22623;DHT22;11478;51.094;7.030;2023-09-30T02:29:52;10.50;99.90
22623;DHT22;11478;51.094;7.030;2023-09-30T02:32:18;10.50;99.90
22623;DHT22;11478;51.094;7.030;2023-09-30T02:34:46;10.40;99.90
22623;DHT22;11478;51.094;7.030;2023-09-30T02:37:12;10.40;99.90
22623;DHT22;11478;51.094;7.030;2023-09-30T02:39:38;10.30;99.90
22623;DHT22;11478;51.094;7.030;2023-09-30T02:42:04;10.30;99.90
22623;DHT22;11478;51.094;7.030;2023-09-30T02:44:33;10.20;99.90
22623;DHT22;11478;51.094;7.030;2023-09-30T02:46:59;10.20;99.90
22623;DHT22;11478;51.094;7.030;2023-09-30T02:49:49;10.20;99.90
22623;DHT22;11478;51.094;7.030;2023-09-30T02:52:15;10.20;99.90
22623;DHT22;11478;51.094;7.030;2023-09-30T02:55:05;10.10;99.90
22623;DHT22;11478;51.094;7.030;2023-09-30T02:57:32;10.10;99.90
22623;DHT22;11478;51.094;7.030;2023-09-30T03:00:17;10.10;99.90
22623;DHT22;11478;51.094;7.030;2023-09-30T03:02:49;10.10;99.90
22623;DHT22;11478;51.094;7.030;2023-09-30T03:05:18;10.10;99.90
22623;DHT22;11478;51.094;7.030;2023-09-30T03:07:48;10.10;99.90
22623;DHT22;11478;51.094;7.030;2023-09-30T03:10:16;10.10;99.90
22623;DHT22;11478;51.094;7.030;2023-09-30T03:12:55;10.10;99.90
22623;DHT22;11478;51.094;7.030;2023-09-30T03:15:22;10.10;99.90
22623;DHT22;11478;51.094;7.030;2023-09-30T03:17:51;10.10;99.90
22623;DHT22;11478;51.094;7.030;2023-09-30T03:20:17;10.20;99.90
22623;DHT22;11478;51.094;7.030;2023-09-30T03:22:54;10.20;99.90
22623;DHT22;11478;51.094;7.030;2023-09-30T03:25:22;10.20;99.90
22623;DHT22;11478;51.094;7.030;2023-09-30T03:27:49;10.10;99.90
22623;DHT22;11478;51.094;7.030;2023-09-30T03:30:16;10.10;99.90
22623;DHT22;11478;51.094;7.030;2023-09-30T03:32:45;10.10;99.90
22623;DHT22;11478;51.094;7.030;2023-09-30T03:35:11;10.10;99.90
22623;DHT22;11478;51.094;7.030;2023-09-30T03:37:44;10.10;99.90
22623;DHT22;11478;51.094;7.030;2023-09-30T03:40:18;10.00;99.90
22623;DHT22;11478;51.094;7.030;2023-09-30T03:42:45;9.90;99.90
22623;DHT22;11478;51.094;7.030;2023-09-30T03:45:34;9.80;99.90
22623;DHT22;11478;51.094;7.030;2023-09-30T03:48:01;9.80;99.90
22623;DHT22;11478;51.094;7.030;2023-09-30T03:50:38;9.80;99.90
22623;DHT22;11478;51.094;7.030;2023-09-30T03:53:05;9.80;99.90
22623;DHT22;11478;51.094;7.030;2023-09-30T04:05:29;9.70;99.90
22623;DHT22;11478;51.094;7.030;2023-09-30T04:07:56;9.70;99.90
22623;DHT22;11478;51.094;7.030;2023-09-30T04:10:22;9.70;99.90
22623;DHT22;11478;51.094;7.030;2023-09-30T04:12:51;9.70;99.90
22623;DHT22;11478;51.094;7.030;2023-09-30T04:15:18;9.70;99.90
22623;DHT22;11478;51.094;7.030;2023-09-30T04:17:44;9.60;99.90
22623;DHT22;11478;51.094;7.030;2023-09-30T04:20:17;9.60;99.90
22623;DHT22;11478;51.094;7.030;2023-09-30T04:22:49;9.70;99.90
22623;DHT22;11478;51.094;7.030;2023-09-30T04:28:36;9.60;99.90
22623;DHT22;11478;51.094;7.030;2023-09-30T04:31:05;9.60;99.90
22623;DHT22;11478;51.094;7.030;2023-09-30T04:33:33;9.60;99.90
22623;DHT22;11478;51.094;7.030;2023-09-30T04:36:01;9.60;99.90
22623;DHT22;11478;51.094;7.030;2023-09-30T04:38:27;9.60;99.90
22623;DHT22;11478;51.094;7.030;2023-09-30T04:40:53;9.50;99.90
22623;DHT22;11478;51.094;7.030;2023-09-30T04:43:20;9.50;99.90
22623;DHT22;11478;51.094;7.030;2023-09-30T04:45:52;9.50;99.90
22623;DHT22;11478;51.094;7.030;2023-09-30T04:48:18;9.50;99.90
22623;DHT22;11478;51.094;7.030;2023-09-30T04:50:44;9.50;99.90
22623;DHT22;11478;51.094;7.030;2023-09-30T04:53:10;9.50;99.90
22623;DHT22;11478;51.094;7.030;2023-09-30T04:55:38;9.50;99.90
22623;DHT22;11478;51.094;7.030;2023-09-30T04:58:04;9.50;99.90
22623;DHT22;11478;51.094;7.030;2023-09-30T05:00:33;9.40;99.90
22623;DHT22;11478;51.094;7.030;2023-09-30T05:03:00;9.50;99.90
22623;DHT22;11478;51.094;7.030;2023-09-30T05:05:27;9.50;99.90
22623;DHT22;11478;51.094;7.030;2023-09-30T05:07:54;9.50;99.90
22623;DHT22;11478;51.094;7.030;2023-09-30T05:10:20;9.40;99.90
22623;DHT22;11478;51.094;7.030;2023-09-30T05:12:46;9.40;99.90
22623;DHT22;11478;51.094;7.030;2023-09-30T05:15:26;9.40;99.90
22623;DHT22;11478;51.094;7.030;2023-09-30T05:18:06;9.40;99.90
22623;DHT22;11478;51.094;7.030;2023-09-30T05:20:37;9.40;99.90
22623;DHT22;11478;51.094;7.030;2023-09-30T05:23:04;9.30;99.90
22623;DHT22;11478;51.094;7.030;2023-09-30T05:25:32;9.30;99.90
22623;DHT22;11478;51.094;7.030;2023-09-30T05:27:58;9.30;99.90
22623;DHT22;11478;51.094;7.030;2023-09-30T05:30:29;9.30;99.90
22623;DHT22;11478;51.094;7.030;2023-09-30T05:32:55;9.30;99.90
22623;DHT22;11478;51.094;7.030;2023-09-30T05:35:23;9.30;99.90
22623;DHT22;11478;51.094;7.030;2023-09-30T05:37:49;9.30;99.90
22623;DHT22;11478;51.094;7.030;2023-09-30T05:40:20;9.30;99.90
22623;DHT22;11478;51.094;7.030;2023-09-30T05:42:56;9.30;99.90
22623;DHT22;11478;51.094;7.030;2023-09-30T05:45:31;9.30;99.90
22623;DHT22;11478;51.094;7.030;2023-09-30T05:48:02;9.30;99.90
22623;DHT22;11478;51.094;7.030;2023-09-30T05:50:33;9.30;99.90
22623;DHT22;11478;51.094;7.030;2023-09-30T05:53:00;9.30;99.90
22623;DHT22;11478;51.094;7.030;2023-09-30T05:55:26;9.30;99.90
22623;DHT22;11478;51.094;7.030;2023-09-30T05:57:52;9.30;99.90
22623;DHT22;11478;51.094;7.030;2023-09-30T06:00:20;9.30;99.90
22623;DHT22;11478;51.094;7.030;2023-09-30T06:02:50;9.30;99.90
22623;DHT22;11478;51.094;7.030;2023-09-30T06:05:19;9.30;99.90
22623;DHT22;11478;51.094;7.030;2023-09-30T06:07:49;9.30;99.90
22623;DHT22;11478;51.094;7.030;2023-09-30T06:10:15;9.30;99.90
22623;DHT22;11478;51.094;7.030;2023-09-30T06:12:41;9.40;99.90
22623;DHT22;11478;51.094;7.030;2023-09-30T06:15:07;9.40;99.90
22623;DHT22;11478;51.094;7.030;2023-09-30T06:17:33;9.50;99.90
22623;DHT22;11478;51.094;7.030;2023-09-30T06:20:06;9.50;99.90
22623;DHT22;11478;51.094;7.030;2023-09-30T06:22:42;9.60;99.90
22623;DHT22;11478;51.094;7.030;2023-09-30T06:25:13;9.60;99.90
22623;DHT22;11478;51.094;7.030;2023-09-30T06:27:46;9.70;99.90
22623;DHT22;11478;51.094;7.030;2023-09-30T06:30:15;9.70;99.90
22623;DHT22;11478;51.094;7.030;2023-09-30T06:32:42;9.80;99.90
22623;DHT22;11478;51.094;7.030;2023-09-30T06:35:09;9.80;99.90
22623;DHT22;11478;51.094;7.030;2023-09-30T06:37:41;9.80;99.90
22623;DHT22;11478;51.094;7.030;2023-09-30T06:40:10;9.80;99.90
22623;DHT22;11478;51.094;7.030;2023-09-30T06:42:38;9.90;99.90
22623;DHT22;11478;51.094;7.030;2023-09-30T06:45:13;10.10;99.90
22623;DHT22;11478;51.094;7.030;2023-09-30T06:47:40;10.30;99.90
22623;DHT22;11478;51.094;7.030;2023-09-30T06:50:11;10.40;99.90
22623;DHT22;11478;51.094;7.030;2023-09-30T06:52:41;10.50;99.90
22623;DHT22;11478;51.094;7.030;2023-09-30T06:55:08;10.60;99.90
22623;DHT22;11478;51.094;7.030;2023-09-30T06:57:37;10.70;99.90
22623;DHT22;11478;51.094;7.030;2023-09-30T07:00:10;10.70;99.90
22623;DHT22;11478;51.094;7.030;2023-09-30T07:02:41;10.70;99.90
22623;DHT22;11478;51.094;7.030;2023-09-30T07:05:11;10.80;99.90
22623;DHT22;11478;51.094;7.030;2023-09-30T07:07:38;10.90;99.90
22623;DHT22;11478;51.094;7.030;2023-09-30T07:10:08;11.00;99.90
22623;DHT22;11478;51.094;7.030;2023-09-30T07:12:34;11.00;99.90
22623;DHT22;11478;51.094;7.030;2023-09-30T07:15:08;11.10;99.90
22623;DHT22;11478;51.094;7.030;2023-09-30T07:17:35;11.20;99.90
22623;DHT22;11478;51.094;7.030;2023-09-30T07:20:03;11.30;99.90
22623;DHT22;11478;51.094;7.030;2023-09-30T07:22:31;11.40;99.90
22623;DHT22;11478;51.094;7.030;2023-09-30T07:24:57;11.50;99.90
22623;DHT22;11478;51.094;7.030;2023-09-30T07:27:26;11.60;99.90
22623;DHT22;11478;51.094;7.030;2023-09-30T07:29:52;11.70;99.90
22623;DHT22;11478;51.094;7.030;2023-09-30T07:32:20;11.70;99.90
22623;DHT22;11478;51.094;7.030;2023-09-30T07:34:49;11.80;99.90
22623;DHT22;11478;51.094;7.030;2023-09-30T07:37:17;11.90;99.90
22623;DHT22;11478;51.094;7.030;2023-09-30T07:39:44;11.90;99.90
22623;DHT22;11478;51.094;7.030;2023-09-30T07:42:12;12.00;99.90
22623;DHT22;11478;51.094;7.030;2023-09-30T07:44:38;12.20;99.90
22623;DHT22;11478;51.094;7.030;2023-09-30T07:47:16;12.30;99.90
22623;DHT22;11478;51.094;7.030;2023-09-30T07:49:45;12.40;99.90
22623;DHT22;11478;51.094;7.030;2023-09-30T07:52:14;12.40;99.90
22623;DHT22;11478;51.094;7.030;2023-09-30T07:54:41;12.50;99.90
22623;DHT22;11478;51.094;7.030;2023-09-30T07:57:10;12.50;99.90
22623;DHT22;11478;51.094;7.030;2023-09-30T07:59:42;12.60;99.90
22623;DHT22;11478;51.094;7.030;2023-09-30T08:02:14;12.60;99.90
22623;DHT22;11478;51.094;7.030;2023-09-30T08:04:52;12.70;99.90
22623;DHT22;11478;51.094;7.030;2023-09-30T08:07:17;12.80;99.90
22623;DHT22;11478;51.094;7.030;2023-09-30T08:09:44;12.90;99.90
22623;DHT22;11478;51.094;7.030;2023-09-30T08:12:10;13.10;99.90
22623;DHT22;11478;51.094;7.030;2023-09-30T08:14:36;13.20;99.90
22623;DHT22;11478;51.094;7.030;2023-09-30T08:17:04;13.30;99.90
22623;DHT22;11478;51.094;7.030;2023-09-30T08:19:30;13.30;99.90
22623;DHT22;11478;51.094;7.030;2023-09-30T08:21:57;13.40;99.90
22623;DHT22;11478;51.094;7.030;2023-09-30T08:24:23;13.50;99.90
22623;DHT22;11478;51.094;7.030;2023-09-30T08:26:56;13.50;99.90
22623;DHT22;11478;51.094;7.030;2023-09-30T08:29:22;13.50;99.90
22623;DHT22;11478;51.094;7.030;2023-09-30T08:31:49;13.50;99.90
22623;DHT22;11478;51.094;7.030;2023-09-30T08:34:16;13.50;99.90
22623;DHT22;11478;51.094;7.030;2023-09-30T08:36:47;13.50;99.90
22623;DHT22;11478;51.094;7.030;2023-09-30T08:39:16;13.60;99.90
22623;DHT22;11478;51.094;7.030;2023-09-30T08:41:42;13.60;99.90
22623;DHT22;11478;51.094;7.030;2023-09-30T08:44:10;13.70;99.90
22623;DHT22;11478;51.094;7.030;2023-09-30T08:46:38;13.70;99.90
22623;DHT22;11478;51.094;7.030;2023-09-30T08:49:07;13.80;99.90
22623;DHT22;11478;51.094;7.030;2023-09-30T08:51:34;13.80;99.90
22623;DHT22;11478;51.094;7.030;2023-09-30T08:54:01;13.90;99.90
22623;DHT22;11478;51.094;7.030;2023-09-30T08:56:32;13.90;99.90
22623;DHT22;11478;51.094;7.030;2023-09-30T08:59:01;14.00;99.90
22623;DHT22;11478;51.094;7.030;2023-09-30T09:01:30;14.00;99.90
22623;DHT22;11478;51.094;7.030;2023-09-30T09:03:57;14.00;99.90
22623;DHT22;11478;51.094;7.030;2023-09-30T09:06:26;14.10;99.90
22623;DHT22;11478;51.094;7.030;2023-09-30T09:08:53;14.10;99.90
22623;DHT22;11478;51.094;7.030;2023-09-30T09:11:23;14.20;99.90
22623;DHT22;11478;51.094;7.030;2023-09-30T09:13:55;14.20;99.90
22623;DHT22;11478;51.094;7.030;2023-09-30T09:16:25;14.30;99.90
22623;DHT22;11478;51.094;7.030;2023-09-30T09:18:51;14.40;99.90
22623;DHT22;11478;51.094;7.030;2023-09-30T09:21:19;14.50;99.90
22623;DHT22;11478;51.094;7.030;2023-09-30T09:23:47;14.50;99.90
22623;DHT22;11478;51.094;7.030;2023-09-30T09:26:30;14.70;99.90
22623;DHT22;11478;51.094;7.030;2023-09-30T09:28:58;14.80;99.90
22623;DHT22;11478;51.094;7.030;2023-09-30T09:31:30;15.10;99.90
22623;DHT22;11478;51.094;7.030;2023-09-30T09:33:57;15.30;99.90
22623;DHT22;11478;51.094;7.030;2023-09-30T09:36:41;15.30;99.90
22623;DHT22;11478;51.094;7.030;2023-09-30T09:39:07;15.20;99.90
22623;DHT22;11478;51.094;7.030;2023-09-30T09:41:33;15.10;99.90
22623;DHT22;11478;51.094;7.030;2023-09-30T09:44:14;15.00;99.90
22623;DHT22;11478;51.094;7.030;2023-09-30T09:46:43;15.00;99.90
22623;DHT22;11478;51.094;7.030;2023-09-30T09:49:10;14.90;99.90
22623;DHT22;11478;51.094;7.030;2023-09-30T09:51:37;14.90;99.90
22623;DHT22;11478;51.094;7.030;2023-09-30T09:54:05;14.90;99.90
22623;DHT22;11478;51.094;7.030;2023-09-30T09:56:35;14.90;99.90
22623;DHT22;11478;51.094;7.030;2023-09-30T09:59:03;14.90;99.90
22623;DHT22;11478;51.094;7.030;2023-09-30T10:01:31;15.00;99.90
22623;DHT22;11478;51.094;7.030;2023-09-30T10:03:59;15.00;99.90
22623;DHT22;11478;51.094;7.030;2023-09-30T10:06:25;15.00;99.90
22623;DHT22;11478;51.094;7.030;2023-09-30T10:08:51;15.10;99.90
22623;DHT22;11478;51.094;7.030;2023-09-30T10:11:18;15.10;99.90
22623;DHT22;11478;51.094;7.030;2023-09-30T10:13:56;15.10;99.90
22623;DHT22;11478;51.094;7.030;2023-09-30T10:21:38;15.20;99.90
22623;DHT22;11478;51.094;7.030;2023-09-30T10:40:52;15.50;99.90
22623;DHT22;11478;51.094;7.030;2023-09-30T10:43:33;15.50;99.90
22623;DHT22;11478;51.094;7.030;2023-09-30T10:46:43;15.50;99.90
22623;DHT22;11478;51.094;7.030;2023-09-30T10:48:55;15.50;99.90
22623;DHT22;11478;51.094;7.030;2023-09-30T10:51:21;15.50;99.90
22623;DHT22;11478;51.094;7.030;2023-09-30T10:53:55;15.50;99.90
22623;DHT22;11478;51.094;7.030;2023-09-30T10:56:32;15.60;99.90
22623;DHT22;11478;51.094;7.030;2023-09-30T10:58:58;15.70;99.90
22623;DHT22;11478;51.094;7.030;2023-09-30T11:01:32;15.70;99.90
22623;DHT22;11478;51.094;7.030;2023-09-30T11:04:01;15.70;99.90
22623;DHT22;11478;51.094;7.030;2023-09-30T11:06:31;15.70;99.90
22623;DHT22;11478;51.094;7.030;2023-09-30T11:08:59;15.70;99.90
22623;DHT22;11478;51.094;7.030;2023-09-30T11:11:48;15.70;99.90
22623;DHT22;11478;51.094;7.030;2023-09-30T11:14:25;15.60;99.90
22623;DHT22;11478;51.094;7.030;2023-09-30T11:16:52;15.60;99.90
22623;DHT22;11478;51.094;7.030;2023-09-30T11:19:20;15.50;99.90
22623;DHT22;11478;51.094;7.030;2023-09-30T11:21:57;15.50;99.90
22623;DHT22;11478;51.094;7.030;2023-09-30T11:24:26;15.40;99.90
22623;DHT22;11478;51.094;7.030;2023-09-30T11:26:55;15.40;99.90
22623;DHT22;11478;51.094;7.030;2023-09-30T11:29:21;15.30;99.90
22623;DHT22;11478;51.094;7.030;2023-09-30T11:31:48;15.30;99.90
22623;DHT22;11478;51.094;7.030;2023-09-30T11:34:16;15.20;99.90
22623;DHT22;11478;51.094;7.030;2023-09-30T11:36:50;15.20;99.90
22623;DHT22;11478;51.094;7.030;2023-09-30T11:39:22;15.20;99.90
22623;DHT22;11478;51.094;7.030;2023-09-30T11:41:57;15.20;99.90
22623;DHT22;11478;51.094;7.030;2023-09-30T11:44:28;15.20;99.90
22623;DHT22;11478;51.094;7.030;2023-09-30T11:47:05;15.20;99.90
22623;DHT22;11478;51.094;7.030;2023-09-30T11:49:42;15.30;99.90
22623;DHT22;11478;51.094;7.030;2023-09-30T11:52:13;15.30;99.90
22623;DHT22;11478;51.094;7.030;2023-09-30T11:54:44;15.40;99.90
22623;DHT22;11478;51.094;7.030;2023-09-30T11:57:23;15.50;99.90
22623;DHT22;11478;51.094;7.030;2023-09-30T11:59:52;15.50;99.90
22623;DHT22;11478;51.094;7.030;2023-09-30T12:02:21;15.60;99.90
22623;DHT22;11478;51.094;7.030;2023-09-30T12:04:47;15.60;99.90
22623;DHT22;11478;51.094;7.030;2023-09-30T12:07:18;15.70;99.90
22623;DHT22;11478;51.094;7.030;2023-09-30T12:09:44;15.80;99.90
22623;DHT22;11478;51.094;7.030;2023-09-30T12:12:10;15.90;99.90
22623;DHT22;11478;51.094;7.030;2023-09-30T12:14:36;16.00;99.90
22623;DHT22;11478;51.094;7.030;2023-09-30T12:17:02;16.10;99.90
22623;DHT22;11478;51.094;7.030;2023-09-30T12:19:33;16.20;99.90
22623;DHT22;11478;51.094;7.030;2023-09-30T12:22:14;16.30;99.90
22623;DHT22;11478;51.094;7.030;2023-09-30T12:27:34;16.50;99.90
22623;DHT22;11478;51.094;7.030;2023-09-30T12:30:00;16.60;99.90
22623;DHT22;11478;51.094;7.030;2023-09-30T12:32:27;16.60;99.90
22623;DHT22;11478;51.094;7.030;2023-09-30T12:34:56;16.70;99.90
22623;DHT22;11478;51.094;7.030;2023-09-30T12:37:22;16.60;99.90
22623;DHT22;11478;51.094;7.030;2023-09-30T12:39:47;16.60;99.90
22623;DHT22;11478;51.094;7.030;2023-09-30T12:42:13;16.50;99.90
22623;DHT22;11478;51.094;7.030;2023-09-30T12:44:40;16.50;99.90
22623;DHT22;11478;51.094;7.030;2023-09-30T12:47:06;16.40;99.90
22623;DHT22;11478;51.094;7.030;2023-09-30T12:49:32;16.40;99.90
22623;DHT22;11478;51.094;7.030;2023-09-30T12:51:58;16.50;99.90
22623;DHT22;11478;51.094;7.030;2023-09-30T12:54:25;16.50;99.90
22623;DHT22;11478;51.094;7.030;2023-09-30T12:56:52;16.50;99.90
22623;DHT22;11478;51.094;7.030;2023-09-30T12:59:18;16.50;99.90
22623;DHT22;11478;51.094;7.030;2023-09-30T13:01:45;16.60;99.90
22623;DHT22;11478;51.094;7.030;2023-09-30T13:04:12;16.60;99.90
22623;DHT22;11478;51.094;7.030;2023-09-30T13:06:39;16.60;99.90
22623;DHT22;11478;51.094;7.030;2023-09-30T13:09:06;16.60;99.90
22623;DHT22;11478;51.094;7.030;2023-09-30T13:11:34;16.70;99.90
22623;DHT22;11478;51.094;7.030;2023-09-30T13:14:00;16.70;99.90
22623;DHT22;11478;51.094;7.030;2023-09-30T13:16:25;16.70;99.90
22623;DHT22;11478;51.094;7.030;2023-09-30T13:18:51;16.80;99.90
22623;DHT22;11478;51.094;7.030;2023-09-30T13:21:18;16.90;99.90
22623;DHT22;11478;51.094;7.030;2023-09-30T13:23:44;16.90;99.90
22623;DHT22;11478;51.094;7.030;2023-09-30T13:26:12;16.90;99.90
22623;DHT22;11478;51.094;7.030;2023-09-30T13:28:40;17.00;99.90
22623;DHT22;11478;51.094;7.030;2023-09-30T13:31:07;17.10;99.90
22623;DHT22;11478;51.094;7.030;2023-09-30T13:33:33;17.10;99.90
22623;DHT22;11478;51.094;7.030;2023-09-30T13:36:03;17.10;99.90
22623;DHT22;11478;51.094;7.030;2023-09-30T13:38:29;17.20;99.90
22623;DHT22;11478;51.094;7.030;2023-09-30T13:40:58;17.20;99.90
22623;DHT22;11478;51.094;7.030;2023-09-30T13:43:24;17.20;99.90
22623;DHT22;11478;51.094;7.030;2023-09-30T13:45:52;17.30;99.90
22623;DHT22;11478;51.094;7.030;2023-09-30T13:48:18;17.30;99.90
22623;DHT22;11478;51.094;7.030;2023-09-30T13:50:44;17.30;99.90
22623;DHT22;11478;51.094;7.030;2023-09-30T13:53:10;17.40;99.90
22623;DHT22;11478;51.094;7.030;2023-09-30T13:55:39;17.30;99.90
22623;DHT22;11478;51.094;7.030;2023-09-30T13:58:05;17.20;99.90
22623;DHT22;11478;51.094;7.030;2023-09-30T14:00:34;17.20;99.90
22623;DHT22;11478;51.094;7.030;2023-09-30T14:03:00;17.20;99.90
22623;DHT22;11478;51.094;7.030;2023-09-30T14:05:26;17.10;99.90
22623;DHT22;11478;51.094;7.030;2023-09-30T14:07:52;17.10;99.90
22623;DHT22;11478;51.094;7.030;2023-09-30T14:10:17;17.00;99.90
22623;DHT22;11478;51.094;7.030;2023-09-30T14:12:45;16.90;99.90
22623;DHT22;11478;51.094;7.030;2023-09-30T14:15:11;16.90;99.90
22623;DHT22;11478;51.094;7.030;2023-09-30T14:17:36;16.80;99.90
22623;DHT22;11478;51.094;7.030;2023-09-30T14:20:03;16.80;99.90
22623;DHT22;11478;51.094;7.030;2023-09-30T14:22:31;16.70;99.90
22623;DHT22;11478;51.094;7.030;2023-09-30T14:24:56;16.70;99.90
22623;DHT22;11478;51.094;7.030;2023-09-30T14:27:23;16.70;99.90
22623;DHT22;11478;51.094;7.030;2023-09-30T14:29:51;16.60;99.90
22623;DHT22;11478;51.094;7.030;2023-09-30T14:32:22;16.50;99.90
22623;DHT22;11478;51.094;7.030;2023-09-30T14:34:48;16.50;99.90
22623;DHT22;11478;51.094;7.030;2023-09-30T14:37:19;16.50;99.90
22623;DHT22;11478;51.094;7.030;2023-09-30T14:39:46;16.40;99.90
22623;DHT22;11478;51.094;7.030;2023-09-30T14:42:12;16.30;99.90
22623;DHT22;11478;51.094;7.030;2023-09-30T14:44:38;16.30;99.90
22623;DHT22;11478;51.094;7.030;2023-09-30T14:47:04;16.30;99.90
22623;DHT22;11478;51.094;7.030;2023-09-30T14:49:31;16.30;99.90
22623;DHT22;11478;51.094;7.030;2023-09-30T14:52:00;16.30;99.90
22623;DHT22;11478;51.094;7.030;2023-09-30T14:54:26;16.30;99.90
22623;DHT22;11478;51.094;7.030;2023-09-30T14:56:56;16.30;99.90
22623;DHT22;11478;51.094;7.030;2023-09-30T14:59:24;16.30;99.90
22623;DHT22;11478;51.094;7.030;2023-09-30T15:01:50;16.30;99.90
22623;DHT22;11478;51.094;7.030;2023-09-30T15:04:18;16.30;99.90
22623;DHT22;11478;51.094;7.030;2023-09-30T15:06:45;16.30;99.90
22623;DHT22;11478;51.094;7.030;2023-09-30T15:09:11;16.20;99.90
22623;DHT22;11478;51.094;7.030;2023-09-30T15:11:40;16.20;99.90
22623;DHT22;11478;51.094;7.030;2023-09-30T15:14:06;16.10;99.90
22623;DHT22;11478;51.094;7.030;2023-09-30T15:16:32;16.10;99.90
22623;DHT22;11478;51.094;7.030;2023-09-30T15:18:58;16.10;99.90
22623;DHT22;11478;51.094;7.030;2023-09-30T15:21:24;16.10;99.90
22623;DHT22;11478;51.094;7.030;2023-09-30T15:23:50;16.10;99.90
22623;DHT22;11478;51.094;7.030;2023-09-30T15:26:16;16.10;99.90
22623;DHT22;11478;51.094;7.030;2023-09-30T15:28:50;16.00;99.90
22623;DHT22;11478;51.094;7.030;2023-09-30T15:31:34;16.00;99.90
22623;DHT22;11478;51.094;7.030;2023-09-30T15:34:00;16.00;99.90
22623;DHT22;11478;51.094;7.030;2023-09-30T15:36:27;15.90;99.90
22623;DHT22;11478;51.094;7.030;2023-09-30T15:38:53;15.90;99.90
22623;DHT22;11478;51.094;7.030;2023-09-30T15:41:26;15.80;99.90
22623;DHT22;11478;51.094;7.030;2023-09-30T15:44:01;15.80;99.90
22623;DHT22;11478;51.094;7.030;2023-09-30T15:46:38;15.70;99.90
22623;DHT22;11478;51.094;7.030;2023-09-30T15:49:04;15.70;99.90
22623;DHT22;11478;51.094;7.030;2023-09-30T15:51:31;15.70;99.90
22623;DHT22;11478;51.094;7.030;2023-09-30T15:53:59;15.60;99.90
22623;DHT22;11478;51.094;7.030;2023-09-30T15:56:37;15.60;99.90
22623;DHT22;11478;51.094;7.030;2023-09-30T15:59:05;15.50;99.90
22623;DHT22;11478;51.094;7.030;2023-09-30T16:04:04;15.40;99.90
22623;DHT22;11478;51.094;7.030;2023-09-30T16:06:30;15.30;99.90
22623;DHT22;11478;51.094;7.030;2023-09-30T16:08:57;15.30;99.90
22623;DHT22;11478;51.094;7.030;2023-09-30T16:11:24;15.20;99.90
22623;DHT22;11478;51.094;7.030;2023-09-30T16:13:50;15.20;99.90
22623;DHT22;11478;51.094;7.030;2023-09-30T16:16:17;15.10;99.90
22623;DHT22;11478;51.094;7.030;2023-09-30T16:18:43;15.10;99.90
22623;DHT22;11478;51.094;7.030;2023-09-30T16:21:09;15.10;99.90
22623;DHT22;11478;51.094;7.030;2023-09-30T16:23:38;15.00;99.90
22623;DHT22;11478;51.094;7.030;2023-09-30T16:26:04;15.00;99.90
22623;DHT22;11478;51.094;7.030;2023-09-30T16:28:30;14.90;99.90
22623;DHT22;11478;51.094;7.030;2023-09-30T16:31:00;14.90;99.90
22623;DHT22;11478;51.094;7.030;2023-09-30T16:33:26;14.80;99.90
22623;DHT22;11478;51.094;7.030;2023-09-30T16:35:52;14.70;99.90
22623;DHT22;11478;51.094;7.030;2023-09-30T16:38:19;14.70;99.90
22623;DHT22;11478;51.094;7.030;2023-09-30T16:40:53;14.60;99.90
22623;DHT22;11478;51.094;7.030;2023-09-30T16:43:19;14.50;99.90
22623;DHT22;11478;51.094;7.030;2023-09-30T16:45:45;14.50;99.90
22623;DHT22;11478;51.094;7.030;2023-09-30T16:48:20;14.40;99.90